Aérodrome :
LOGIN :

S'inscrire | Disclaimer

   EN    FR    IT 

 










Légende :    VFR   VFR Marginal   IFR   IFR Intensif   IFR Très Intensif
Visi : 
Plafond : 
>= 8 km
>= 3000ft
5 à 8 km
1000 à 3000 ft
1500m à 5 km
500 à 1000 ft
800 à 1500m
200 à 500 ft
< 800m
< 200 ft
Symboles :   Orages  Brouillard  Fortes neiges  Fortes précipitations  Vent > 20 kt
SIGMETs :   Divers  Orages  Givrage  Turbulence  Onde Orograph.  Cendres Volcan.







- Altitude de l'aérodrome : 15 ft
- Code IATA : BHD
- Voir les cartes d'approche


EGAC - George Best Belfast City

DERNIER METAR :
  • 122350Z AUTO 13014KT 100V170 9999 SCT023/// OVC027/// 08/04 Q1010

METARs EXPIRÉS :
  • 122320Z AUTO 13013KT 110V180 9999 OVC025/// 08/04 Q1010
  • 122250Z AUTO 14014KT 9999 BKN023/// OVC031/// 08/04 Q1010
  • 122220Z AUTO 14015KT 9999 FEW024/// BKN028/// 08/05 Q1010
  • 122150Z AUTO 14017G28KT 8000 -RA OVC026/// 08/05 Q1010
  • 122120Z AUTO 14015KT 9999 BKN024/// OVC029/// 08/05 Q1010

Prévision TAF périmée.
ATIS : +44 02890 935 124
Pas de NOTAMs connus pour ce terrain.
1 SIGMET publié pour la FIR Scottish (EGPX) :
 
Turbulence forte
EGPX SIGMET 02 VALID 122330/130330 EGRR
EGPX SCOTTISH FIR SEV TURB FCST SW OF LINE N5500 W00400 - N5900 W01000 SFC/FL060 STNR NC=



MET'MAP, la Météo Aéronautique d'un coup d'oeil ! - Copyright ORBIFLY Décembre 2007 - Disclaimer

ORBIFLY MET'MAP TEAM :

Programmation & Développement : Alexandra Zaïnal
Conception & Développement : Baudouin d'Aumeries
Co-Programmation & Développement : Marc-Olivier Méhu
Soutien technique & logistique : Manuel Goepfert

Contact : metmap@orbifly.com




SOURCES & CREDITS :

   NOAA